KQYC

2019-08-23 22:30:07Z

Plaintext report →

Temperature
High0.0 °C32.0 °F
Current0.0 °C32.0 °F
Low0.0 °C32.0 °F
Feels Like-3.7 °C25.4 °F
Dewpoint0.0 °C32.0 °F
Winds
Speed and Direction3.2 m/s7.2 mi/h 6 kn 5 °
Gust0.0 m/s0.00 mi/h 0 kn
SquallUnavailable
Pressure and Humidity
Pressure At Field Level1011.4 mb29.9 in
Pressure At Sea Level0.0 mb0.0 in
Pressure Trend0.2 mb0.0 in
Pressure Tendency 2
HumidityUnavailable

Station Alarms & Warnings:

Ceilometer Alarms / Warnings:

Ceilometer Data Missing!
Historical Weather Phenomenon Graphs

Additional Information:

  METAR KQYC 232230Z AUTO 01006KT 00/00 A2987 RMK AO2 SLPNO 10000 20000
  52002 PWINO $=    
Cloud Cover
Layer 1 Undetected
Layer 2 Undetected
Layer 3 Undetected
Winds
2-minute Winds
Minimum2.3 m/s5.14 mi/h 4 kn355 °
Average3.4 m/s7.61 mi/h 6 kn 4 °
Maximum4.4 m/s9.84 mi/h 8 kn17 °
10-minute Winds
Minimum1.9 m/s4.25 mi/h 3 kn343 °
Average3.2 m/s7.16 mi/h 6 kn1 °
Maximum4.6 m/s10.29 mi/h 8 kn23 °
Precipitation
IntensityUnavailable
Rainfall
1-hour Total0.00 mm0.00 in
3-hour Total0.00 mm0.00 in
6-hour Total0.00 mm0.00 in
24-hour Total0.00 mm0.00 in
Precipitation
1-hour TotalUnavailable
3-hour TotalUnavailable
6-hour TotalUnavailable
24-hour TotalUnavailable
Snowfall
1-hour TotalUnavailable
3-hour TotalUnavailable
6-hour TotalUnavailable
24-hour TotalUnavailable